createdAt,value
2017-10-29T00:00:39.880Z,54.30
2017-10-29T00:01:44.575Z,54.30
2017-10-29T00:02:49.376Z,54.30
2017-10-29T00:03:54.113Z,54.20
2017-10-29T00:04:58.715Z,54.20
2017-10-29T00:06:03.517Z,54.20
2017-10-29T00:07:08.220Z,54.20
2017-10-29T00:08:12.993Z,54.30
2017-10-29T00:09:17.824Z,54.20
2017-10-29T00:10:22.369Z,54.30
2017-10-29T00:11:27.089Z,54.30
2017-10-29T00:12:31.874Z,54.20
2017-10-29T00:13:36.465Z,54.30
2017-10-29T00:14:41.038Z,54.20
2017-10-29T00:15:45.596Z,54.30
2017-10-29T00:16:50.484Z,54.30
2017-10-29T00:17:55.253Z,54.40
2017-10-29T00:18:59.990Z,54.40
2017-10-29T00:20:04.797Z,54.30
2017-10-29T00:21:09.718Z,54.20
2017-10-29T00:22:14.475Z,54.20
2017-10-29T00:23:19.095Z,54.20
2017-10-29T00:24:23.825Z,54.20
2017-10-29T00:25:28.437Z,54.20
2017-10-29T00:26:33.184Z,54.30
2017-10-29T00:27:38.118Z,55.00
2017-10-29T00:28:42.963Z,54.20
2017-10-29T00:29:47.693Z,54.30
2017-10-29T00:30:52.434Z,54.30
2017-10-29T00:31:57.063Z,54.30
2017-10-29T00:33:01.868Z,54.40
2017-10-29T00:34:06.742Z,54.40
2017-10-29T00:35:11.317Z,54.30
2017-10-29T00:36:16.037Z,54.30
2017-10-29T00:37:20.841Z,54.30
2017-10-29T00:38:25.786Z,54.30
2017-10-29T00:39:30.522Z,54.40
2017-10-29T00:40:35.260Z,54.30
2017-10-29T00:41:39.959Z,54.40
2017-10-29T00:42:44.532Z,54.30
2017-10-29T00:43:49.254Z,54.30
2017-10-29T00:44:54.037Z,54.30
2017-10-29T00:45:58.685Z,54.30
2017-10-29T00:47:03.495Z,54.30
2017-10-29T00:48:08.319Z,54.20
2017-10-29T00:49:13.006Z,54.40
2017-10-29T00:50:17.913Z,54.30
2017-10-29T00:51:22.683Z,54.30
2017-10-29T00:52:27.519Z,54.30
2017-10-29T00:53:32.347Z,54.20
2017-10-29T00:54:36.959Z,54.30
2017-10-29T00:55:41.661Z,54.20
2017-10-29T00:56:46.246Z,54.30
2017-10-29T00:57:50.943Z,54.30
2017-10-29T00:58:55.774Z,54.30
2017-10-29T01:00:00.505Z,54.30
2017-10-29T01:01:05.409Z,54.30
2017-10-29T01:02:10.288Z,54.30
2017-10-29T01:03:14.886Z,54.30
2017-10-29T01:04:19.544Z,54.30
2017-10-29T01:05:24.190Z,54.30
2017-10-29T01:06:28.925Z,54.30
2017-10-29T01:07:33.656Z,54.30
2017-10-29T01:08:38.272Z,54.30
2017-10-29T01:09:42.959Z,54.30
2017-10-29T01:10:47.839Z,54.30
2017-10-29T01:11:52.569Z,54.30
2017-10-29T01:12:57.276Z,54.30
2017-10-29T01:14:02.011Z,54.30
2017-10-29T01:15:06.694Z,54.20
2017-10-29T01:16:11.518Z,54.20
2017-10-29T01:17:16.327Z,54.30
2017-10-29T01:18:20.954Z,54.30
2017-10-29T01:19:25.675Z,54.30
2017-10-29T01:20:30.490Z,54.30
2017-10-29T01:21:35.106Z,54.30
2017-10-29T01:22:39.859Z,54.30
2017-10-29T01:23:44.540Z,54.30
2017-10-29T01:24:49.244Z,54.30
2017-10-29T01:25:54.095Z,54.30
2017-10-29T01:26:58.837Z,54.90
2017-10-29T01:28:03.407Z,54.30
2017-10-29T01:29:08.269Z,54.30
2017-10-29T01:30:12.936Z,54.30
2017-10-29T01:31:17.710Z,54.30
2017-10-29T01:32:22.374Z,54.90
2017-10-29T01:33:27.155Z,54.30
2017-10-29T01:34:32.116Z,54.30
2017-10-29T01:35:37.015Z,54.30
2017-10-29T01:36:41.683Z,54.30
2017-10-29T01:37:46.507Z,54.30
2017-10-29T01:38:51.237Z,54.30
2017-10-29T01:39:55.880Z,54.30
2017-10-29T01:41:00.589Z,54.30
2017-10-29T01:42:05.217Z,54.30
2017-10-29T01:43:09.948Z,54.30
2017-10-29T01:44:14.578Z,54.30
2017-10-29T01:45:19.350Z,54.30
2017-10-29T01:46:24.073Z,54.30
2017-10-29T01:47:28.845Z,54.30
2017-10-29T01:48:33.600Z,54.30
2017-10-29T01:49:38.230Z,54.30
2017-10-29T01:50:43.144Z,54.30
2017-10-29T01:51:47.845Z,54.30
2017-10-29T01:52:52.612Z,54.30
2017-10-29T01:53:57.477Z,54.30
2017-10-29T01:55:02.262Z,54.30
2017-10-29T01:56:06.998Z,54.30
2017-10-29T01:57:11.710Z,54.30
2017-10-29T01:58:16.429Z,54.30
2017-10-29T01:59:21.102Z,54.30
2017-10-29T02:00:25.808Z,54.30
2017-10-29T02:01:30.589Z,54.20
2017-10-29T02:02:35.207Z,54.20
2017-10-29T02:03:39.999Z,54.20
2017-10-29T02:04:44.683Z,54.20
2017-10-29T02:05:49.515Z,54.20
2017-10-29T02:06:54.281Z,54.20
2017-10-29T02:07:58.914Z,54.20
2017-10-29T02:09:03.574Z,54.20
2017-10-29T02:10:08.150Z,54.20
2017-10-29T02:11:12.772Z,54.20
2017-10-29T02:12:17.712Z,54.20
2017-10-29T02:13:22.440Z,54.20
2017-10-29T02:14:27.183Z,54.20
2017-10-29T02:15:32.119Z,54.20
2017-10-29T02:16:36.926Z,54.20
2017-10-29T02:17:41.518Z,54.20
2017-10-29T02:18:46.420Z,54.20
2017-10-29T02:19:51.182Z,54.20
2017-10-29T02:20:55.810Z,54.20
2017-10-29T02:22:00.512Z,54.20
2017-10-29T02:23:05.318Z,54.20
2017-10-29T02:24:10.262Z,54.20
2017-10-29T02:25:14.973Z,54.20
2017-10-29T02:26:19.611Z,54.20
2017-10-29T02:27:24.696Z,54.30
2017-10-29T02:28:29.545Z,54.30
2017-10-29T02:29:34.422Z,54.30
2017-10-29T02:30:39.082Z,54.30
2017-10-29T02:31:43.913Z,54.30
2017-10-29T02:32:48.677Z,54.30
2017-10-29T02:33:53.251Z,54.20
2017-10-29T02:34:57.909Z,54.30
2017-10-29T02:36:02.704Z,54.20
2017-10-29T02:37:07.295Z,54.20
2017-10-29T02:38:11.851Z,54.20
2017-10-29T02:39:16.452Z,54.20
2017-10-29T02:40:21.151Z,54.20
2017-10-29T02:41:25.858Z,54.20
2017-10-29T02:42:30.524Z,54.20
2017-10-29T02:43:35.458Z,54.20
2017-10-29T02:44:40.469Z,54.20
2017-10-29T02:45:45.285Z,54.20
2017-10-29T02:46:50.077Z,54.10
2017-10-29T02:47:54.694Z,54.10
2017-10-29T02:48:59.297Z,54.10
2017-10-29T02:50:03.873Z,54.20
2017-10-29T02:51:08.647Z,54.20
2017-10-29T02:52:13.180Z,54.20
2017-10-29T02:53:17.926Z,54.10
2017-10-29T02:54:22.755Z,54.10
2017-10-29T02:55:27.641Z,54.10
2017-10-29T02:56:32.477Z,54.10
2017-10-29T02:57:37.148Z,54.10
2017-10-29T02:58:41.749Z,54.10
2017-10-29T02:59:46.494Z,54.10
2017-10-29T03:00:51.286Z,54.10
2017-10-29T03:01:55.960Z,54.00
2017-10-29T03:03:00.797Z,54.10
2017-10-29T03:04:05.586Z,54.00
2017-10-29T03:05:10.360Z,54.00
2017-10-29T03:06:15.217Z,54.00
2017-10-29T03:07:19.995Z,54.00
2017-10-29T03:08:24.769Z,54.00
2017-10-29T03:09:29.598Z,54.00
2017-10-29T03:10:34.413Z,54.00
2017-10-29T03:11:39.105Z,54.00
2017-10-29T03:12:43.909Z,54.00
2017-10-29T03:13:48.573Z,54.00
2017-10-29T03:14:53.289Z,53.90
2017-10-29T03:15:57.973Z,54.00
2017-10-29T03:17:02.800Z,54.00
2017-10-29T03:18:07.525Z,54.00
2017-10-29T03:19:12.156Z,53.90
2017-10-29T03:20:16.941Z,54.00
2017-10-29T03:21:21.662Z,54.00
2017-10-29T03:22:26.426Z,53.90
2017-10-29T03:23:30.996Z,54.00
2017-10-29T03:24:35.804Z,54.00
2017-10-29T03:25:40.506Z,54.00
2017-10-29T03:26:45.233Z,53.90
2017-10-29T03:27:49.885Z,53.90
2017-10-29T03:28:54.470Z,53.90
2017-10-29T03:29:59.198Z,53.90
2017-10-29T03:31:04.227Z,54.50
2017-10-29T03:32:08.869Z,53.90
2017-10-29T03:33:13.568Z,53.90
2017-10-29T03:34:18.302Z,53.80
2017-10-29T03:35:22.973Z,53.80
2017-10-29T03:36:27.697Z,53.80
2017-10-29T03:37:32.295Z,53.90
2017-10-29T03:38:37.147Z,54.40
2017-10-29T03:39:42.002Z,53.80
2017-10-29T03:40:46.679Z,53.80
2017-10-29T03:41:51.503Z,53.80
2017-10-29T03:42:56.244Z,53.70
2017-10-29T03:44:00.977Z,53.70
2017-10-29T03:45:05.807Z,53.80
2017-10-29T03:46:10.459Z,53.80
2017-10-29T03:47:15.164Z,53.80
2017-10-29T03:48:19.935Z,53.70
2017-10-29T03:49:24.453Z,53.70
2017-10-29T03:50:29.149Z,53.80
2017-10-29T03:51:33.806Z,53.80
2017-10-29T03:52:38.654Z,53.60
2017-10-29T03:53:43.377Z,53.60
2017-10-29T03:54:48.117Z,53.60
2017-10-29T03:55:52.991Z,53.60
2017-10-29T03:56:57.741Z,53.60
2017-10-29T03:58:02.453Z,53.70
2017-10-29T03:59:07.100Z,53.70
2017-10-29T04:00:11.870Z,53.50
2017-10-29T04:01:16.634Z,53.50
2017-10-29T04:02:21.407Z,53.50
2017-10-29T04:03:26.264Z,53.50
2017-10-29T04:04:30.966Z,53.60
2017-10-29T04:05:35.730Z,54.20
2017-10-29T04:06:40.284Z,53.70
2017-10-29T04:07:44.810Z,53.60
2017-10-29T04:08:49.445Z,53.70
2017-10-29T04:09:54.091Z,53.60
2017-10-29T04:10:58.633Z,53.50
2017-10-29T04:12:03.236Z,53.60
2017-10-29T04:13:08.078Z,53.40
2017-10-29T04:14:12.637Z,53.60
2017-10-29T04:15:17.294Z,53.50
2017-10-29T04:16:21.898Z,53.60
2017-10-29T04:17:26.589Z,53.60
2017-10-29T04:18:31.212Z,53.60
2017-10-29T04:19:35.927Z,53.60
2017-10-29T04:20:40.816Z,53.50
2017-10-29T04:21:45.558Z,53.40
2017-10-29T04:22:50.219Z,53.30
2017-10-29T04:23:54.943Z,53.40
2017-10-29T04:24:59.808Z,53.50
2017-10-29T04:26:04.901Z,53.50
2017-10-29T04:27:09.696Z,53.40
2017-10-29T04:28:14.416Z,53.50
2017-10-29T04:29:19.081Z,53.60
2017-10-29T04:30:23.731Z,53.50
2017-10-29T04:31:28.484Z,53.50
2017-10-29T04:32:33.207Z,53.50
2017-10-29T04:33:38.082Z,53.40
2017-10-29T04:34:42.876Z,53.30
2017-10-29T04:35:47.612Z,53.40
2017-10-29T04:36:52.294Z,53.50
2017-10-29T04:37:56.986Z,53.50
2017-10-29T04:39:01.667Z,53.60
2017-10-29T04:40:06.278Z,54.10
2017-10-29T04:41:11.047Z,53.50
2017-10-29T04:42:15.716Z,53.50
2017-10-29T04:43:20.397Z,53.50
2017-10-29T04:44:25.193Z,53.60
2017-10-29T04:45:29.707Z,53.50
2017-10-29T04:46:34.617Z,53.60
2017-10-29T04:47:39.373Z,53.60
2017-10-29T04:48:43.913Z,53.50
2017-10-29T04:49:48.674Z,53.50
2017-10-29T04:50:53.294Z,53.60
2017-10-29T04:51:57.953Z,53.60
2017-10-29T04:53:02.725Z,53.50
2017-10-29T04:54:07.471Z,53.60
2017-10-29T04:55:12.235Z,53.70
2017-10-29T04:56:17.009Z,53.60
2017-10-29T04:57:21.773Z,53.70
2017-10-29T04:58:26.434Z,53.70
2017-10-29T04:59:31.115Z,53.70
2017-10-29T05:00:35.679Z,53.50
2017-10-29T05:01:40.565Z,53.40
2017-10-29T05:02:45.218Z,53.40
2017-10-29T05:03:49.842Z,53.40
2017-10-29T05:04:54.533Z,53.40
2017-10-29T05:05:59.311Z,53.50
2017-10-29T05:07:03.999Z,53.60
2017-10-29T05:08:08.628Z,53.70
2017-10-29T05:09:13.382Z,53.70
2017-10-29T05:10:18.133Z,53.50
2017-10-29T05:11:23.330Z,53.60
2017-10-29T05:12:28.023Z,53.40
2017-10-29T05:13:32.630Z,53.50
2017-10-29T05:14:37.472Z,53.50
2017-10-29T05:15:42.037Z,53.50
2017-10-29T05:16:46.590Z,53.50
2017-10-29T05:17:51.261Z,53.50
2017-10-29T05:18:56.251Z,53.60
2017-10-29T05:20:01.182Z,54.30
2017-10-29T05:21:05.874Z,53.60
2017-10-29T05:22:10.527Z,53.60
2017-10-29T05:23:15.956Z,53.40
2017-10-29T05:24:20.741Z,53.50
2017-10-29T05:25:25.666Z,53.40
2017-10-29T05:26:30.576Z,53.60
2017-10-29T05:27:35.426Z,53.60
2017-10-29T05:28:40.212Z,53.50
2017-10-29T05:29:45.103Z,53.50
2017-10-29T05:30:49.901Z,53.60
2017-10-29T05:31:54.806Z,53.40
2017-10-29T05:32:59.673Z,53.60
2017-10-29T05:34:04.355Z,53.60
2017-10-29T05:35:09.076Z,53.60
2017-10-29T05:36:13.738Z,53.50
2017-10-29T05:37:18.576Z,53.50
2017-10-29T05:38:23.389Z,53.50
2017-10-29T05:39:28.034Z,53.60
2017-10-29T05:40:32.786Z,53.60
2017-10-29T05:41:37.515Z,53.60
2017-10-29T05:42:52.456Z,53.60
2017-10-29T05:43:57.261Z,53.70
2017-10-29T05:45:02.071Z,53.60
2017-10-29T05:46:06.817Z,53.60
2017-10-29T05:47:11.543Z,53.60
2017-10-29T05:48:16.173Z,53.60
2017-10-29T05:49:21.074Z,53.60
2017-10-29T05:50:25.786Z,53.60
2017-10-29T05:51:30.623Z,53.60
2017-10-29T05:52:35.418Z,53.60
2017-10-29T05:53:40.279Z,53.60
2017-10-29T05:54:44.949Z,53.70
2017-10-29T05:55:49.723Z,53.60
2017-10-29T05:56:54.417Z,53.60
2017-10-29T05:57:59.052Z,53.60
2017-10-29T05:59:03.909Z,53.60
2017-10-29T06:00:08.805Z,53.60
2017-10-29T06:01:13.394Z,53.70
2017-10-29T06:02:18.177Z,53.60
2017-10-29T06:03:22.911Z,53.70
2017-10-29T06:04:27.694Z,53.80
2017-10-29T06:05:32.270Z,53.80
2017-10-29T06:06:37.125Z,53.70
2017-10-29T06:07:41.917Z,53.70
2017-10-29T06:08:46.531Z,53.70
2017-10-29T06:09:51.297Z,53.60
2017-10-29T06:10:55.986Z,53.70
2017-10-29T06:12:00.796Z,53.80
2017-10-29T06:13:05.626Z,53.80
2017-10-29T06:14:10.230Z,53.70
2017-10-29T06:15:15.142Z,53.70
2017-10-29T06:16:19.890Z,54.00
2017-10-29T06:17:24.723Z,53.80
2017-10-29T06:18:29.483Z,53.80
2017-10-29T06:19:35.052Z,53.70
2017-10-29T06:20:39.586Z,53.80
2017-10-29T06:21:44.418Z,53.80
2017-10-29T06:22:49.072Z,53.70
2017-10-29T06:23:54.602Z,53.80
2017-10-29T06:24:59.424Z,53.70
2017-10-29T06:26:04.071Z,53.70
2017-10-29T06:27:08.749Z,53.70
2017-10-29T06:28:13.461Z,53.70
2017-10-29T06:29:18.140Z,53.80
2017-10-29T06:30:22.730Z,53.70
2017-10-29T06:31:27.450Z,53.70
2017-10-29T06:32:32.273Z,53.80
2017-10-29T06:33:37.034Z,53.70
2017-10-29T06:34:41.745Z,53.80
2017-10-29T06:35:46.528Z,53.80
2017-10-29T06:36:51.098Z,53.80
2017-10-29T06:37:55.854Z,53.70
2017-10-29T06:39:00.630Z,53.70
2017-10-29T06:40:05.641Z,53.70
2017-10-29T06:41:10.399Z,53.70
2017-10-29T06:42:15.064Z,53.70
2017-10-29T06:43:19.920Z,53.70
2017-10-29T06:44:24.690Z,53.60
2017-10-29T06:45:29.578Z,53.60
2017-10-29T06:46:34.291Z,53.60
2017-10-29T06:47:39.017Z,53.70
2017-10-29T06:48:43.848Z,53.70
2017-10-29T06:49:48.588Z,53.70
2017-10-29T06:50:53.348Z,53.70
2017-10-29T06:51:57.962Z,53.60
2017-10-29T06:53:02.563Z,53.70
2017-10-29T06:54:07.313Z,53.70
2017-10-29T06:55:12.102Z,53.70
2017-10-29T06:56:16.800Z,53.70
2017-10-29T06:57:21.599Z,53.60
2017-10-29T06:58:26.278Z,53.70
2017-10-29T06:59:30.962Z,53.70
2017-10-29T07:00:35.763Z,53.70
2017-10-29T07:01:40.887Z,53.70
2017-10-29T07:02:45.778Z,53.70
2017-10-29T07:03:50.545Z,53.60
2017-10-29T07:04:55.288Z,53.60
2017-10-29T07:06:00.068Z,53.60
2017-10-29T07:07:04.978Z,53.60
2017-10-29T07:08:09.635Z,53.60
2017-10-29T07:09:14.437Z,53.70
2017-10-29T07:10:19.237Z,53.60
2017-10-29T07:11:24.068Z,53.60
2017-10-29T07:12:28.944Z,53.60
2017-10-29T07:13:33.849Z,53.60
2017-10-29T07:14:38.454Z,53.60
2017-10-29T07:15:43.123Z,53.60
2017-10-29T07:16:47.714Z,53.60
2017-10-29T07:17:52.412Z,53.60
2017-10-29T07:18:57.078Z,53.60
2017-10-29T07:20:01.882Z,53.60
2017-10-29T07:21:06.396Z,53.70
2017-10-29T07:22:11.062Z,53.70
2017-10-29T07:23:15.658Z,53.70
2017-10-29T07:24:20.434Z,53.70
2017-10-29T07:25:25.313Z,53.60
2017-10-29T07:26:29.878Z,53.60
2017-10-29T07:27:34.563Z,53.60
2017-10-29T07:28:39.155Z,53.70
2017-10-29T07:29:43.994Z,53.70
2017-10-29T07:30:48.637Z,53.70
2017-10-29T07:31:53.488Z,53.70
2017-10-29T07:32:58.196Z,53.70
2017-10-29T07:34:02.791Z,53.60
2017-10-29T07:35:07.492Z,53.70
2017-10-29T07:36:12.176Z,53.70
2017-10-29T07:37:16.958Z,53.60
2017-10-29T07:38:21.560Z,53.60
2017-10-29T07:39:26.261Z,53.60
2017-10-29T07:40:30.992Z,53.70
2017-10-29T07:41:35.531Z,53.70
2017-10-29T07:42:40.296Z,53.70
2017-10-29T07:43:44.957Z,53.70
2017-10-29T07:44:49.696Z,53.70
2017-10-29T07:45:54.529Z,53.60
2017-10-29T07:46:59.268Z,53.60
2017-10-29T07:48:03.909Z,53.60
2017-10-29T07:49:08.773Z,53.60
2017-10-29T07:50:13.652Z,53.60
2017-10-29T07:51:18.502Z,53.70
2017-10-29T07:52:23.193Z,53.70
2017-10-29T07:53:28.028Z,53.70
2017-10-29T07:54:32.833Z,53.70
2017-10-29T07:55:37.512Z,53.80
2017-10-29T07:56:42.119Z,53.70
2017-10-29T07:57:46.818Z,53.80
2017-10-29T07:58:51.621Z,53.70
2017-10-29T07:59:56.397Z,53.80
2017-10-29T08:01:01.201Z,53.80
2017-10-29T08:02:05.918Z,53.80
2017-10-29T08:03:10.846Z,53.80
2017-10-29T08:04:15.475Z,53.80
2017-10-29T08:05:20.252Z,54.00
2017-10-29T08:06:24.845Z,53.80
2017-10-29T08:07:29.462Z,53.80
2017-10-29T08:08:34.138Z,53.80
2017-10-29T08:09:38.733Z,53.80
2017-10-29T08:10:43.588Z,53.80
2017-10-29T08:11:48.352Z,53.80
2017-10-29T08:12:52.994Z,53.80
2017-10-29T08:13:57.773Z,53.80
2017-10-29T08:15:02.611Z,53.90
2017-10-29T08:16:07.124Z,53.90
2017-10-29T08:17:14.765Z,53.90
2017-10-29T08:18:19.432Z,53.90
2017-10-29T08:19:24.307Z,53.80
2017-10-29T08:20:29.121Z,53.80
2017-10-29T08:21:33.922Z,53.80
2017-10-29T08:22:38.415Z,54.50
2017-10-29T08:23:43.205Z,53.80
2017-10-29T08:24:47.937Z,53.80
2017-10-29T08:25:52.569Z,53.80
2017-10-29T08:26:57.328Z,53.80
2017-10-29T08:28:02.011Z,53.80
2017-10-29T08:29:06.723Z,53.80
2017-10-29T08:30:11.560Z,53.90
2017-10-29T08:31:16.378Z,53.80
2017-10-29T08:32:21.153Z,53.80
2017-10-29T08:33:25.757Z,53.80
2017-10-29T08:34:30.405Z,53.80
2017-10-29T08:35:35.193Z,53.80
2017-10-29T08:36:39.982Z,53.90
2017-10-29T08:37:44.820Z,53.90
2017-10-29T08:38:49.490Z,53.80
2017-10-29T08:39:54.064Z,53.80
2017-10-29T08:40:58.825Z,53.80
2017-10-29T08:42:03.552Z,53.80
2017-10-29T08:43:08.767Z,53.80
2017-10-29T08:44:13.490Z,53.80
2017-10-29T08:45:18.354Z,53.80
2017-10-29T08:46:22.939Z,53.80
2017-10-29T08:47:27.703Z,53.80
2017-10-29T08:48:32.426Z,53.80
2017-10-29T08:49:37.098Z,53.80
2017-10-29T08:50:41.791Z,53.80
2017-10-29T08:51:46.480Z,53.80
2017-10-29T08:52:51.278Z,53.80
2017-10-29T08:53:55.860Z,53.80
2017-10-29T08:55:00.778Z,53.80
2017-10-29T08:56:05.566Z,53.80
2017-10-29T08:57:10.324Z,53.80
2017-10-29T08:58:15.016Z,53.90
2017-10-29T08:59:19.808Z,53.80
2017-10-29T09:00:24.452Z,53.80
2017-10-29T09:01:29.350Z,53.90
2017-10-29T09:02:34.192Z,53.80
2017-10-29T09:03:39.171Z,53.80
2017-10-29T09:04:43.869Z,53.90
2017-10-29T09:05:48.579Z,53.80
2017-10-29T09:06:53.412Z,53.90
2017-10-29T09:07:58.214Z,53.90
2017-10-29T09:09:03.058Z,53.90
2017-10-29T09:10:07.916Z,53.90
2017-10-29T09:11:12.564Z,53.90
2017-10-29T09:12:17.262Z,54.00
2017-10-29T09:13:21.985Z,53.90
2017-10-29T09:14:26.686Z,53.90
2017-10-29T09:15:31.449Z,53.90
2017-10-29T09:16:36.144Z,53.90
2017-10-29T09:17:40.956Z,53.90
2017-10-29T09:18:45.751Z,53.90
2017-10-29T09:19:50.587Z,53.90
2017-10-29T09:20:55.313Z,54.00
2017-10-29T09:22:00.177Z,53.90
2017-10-29T09:23:04.904Z,54.00
2017-10-29T09:24:09.608Z,53.90
2017-10-29T09:25:14.501Z,54.00
2017-10-29T09:26:19.475Z,54.00
2017-10-29T09:27:24.160Z,54.00
2017-10-29T09:28:28.988Z,54.00
2017-10-29T09:29:33.779Z,54.00
2017-10-29T09:30:38.516Z,54.00
2017-10-29T09:31:43.357Z,53.90
2017-10-29T09:32:48.121Z,54.00
2017-10-29T09:33:53.017Z,54.00
2017-10-29T09:34:57.690Z,54.00
2017-10-29T09:36:02.602Z,54.60
2017-10-29T09:37:07.157Z,54.00
2017-10-29T09:38:11.846Z,54.00
2017-10-29T09:39:16.699Z,54.00
2017-10-29T09:40:22.681Z,54.00
2017-10-29T09:41:27.600Z,54.00
2017-10-29T09:42:32.443Z,54.00
2017-10-29T09:43:37.452Z,54.00
2017-10-29T09:44:42.325Z,54.00
2017-10-29T09:45:47.062Z,54.00
2017-10-29T09:46:51.739Z,54.00
2017-10-29T09:47:56.435Z,54.00
2017-10-29T09:49:01.271Z,54.00
2017-10-29T09:50:05.889Z,54.00
2017-10-29T09:51:10.586Z,54.00
2017-10-29T09:52:15.428Z,54.00
2017-10-29T09:53:20.307Z,54.00
2017-10-29T09:54:24.866Z,54.00
2017-10-29T09:55:29.744Z,54.00
2017-10-29T09:56:34.428Z,54.00
2017-10-29T09:57:39.259Z,54.00
2017-10-29T09:58:44.231Z,54.00
2017-10-29T09:59:49.113Z,54.00
2017-10-29T10:00:53.873Z,54.00
2017-10-29T10:01:58.643Z,54.00
2017-10-29T10:03:03.451Z,54.00
2017-10-29T10:04:08.722Z,54.00
2017-10-29T10:05:13.337Z,54.00
2017-10-29T10:06:18.095Z,54.00
2017-10-29T10:07:22.905Z,54.00
2017-10-29T10:08:27.607Z,54.00
2017-10-29T10:09:32.365Z,54.00
2017-10-29T10:10:37.090Z,54.00
2017-10-29T10:11:41.862Z,54.00
2017-10-29T10:12:46.556Z,54.00
2017-10-29T10:13:51.241Z,54.10
2017-10-29T10:14:55.954Z,54.10
2017-10-29T10:16:00.689Z,54.00
2017-10-29T10:17:05.597Z,54.10
2017-10-29T10:18:10.360Z,54.10
2017-10-29T10:19:15.229Z,54.10
2017-10-29T10:20:20.045Z,54.10
2017-10-29T10:21:24.709Z,54.10
2017-10-29T10:22:29.381Z,54.10
2017-10-29T10:23:34.228Z,54.10
2017-10-29T10:24:38.916Z,54.10
2017-10-29T10:25:43.456Z,54.10
2017-10-29T10:26:48.188Z,54.10
2017-10-29T10:27:52.753Z,54.10
2017-10-29T10:28:57.340Z,54.10
2017-10-29T10:30:02.033Z,54.10
2017-10-29T10:31:06.689Z,54.10
2017-10-29T10:32:11.620Z,54.10
2017-10-29T10:33:16.478Z,54.10
2017-10-29T10:34:21.212Z,54.00
2017-10-29T10:35:25.993Z,54.10
2017-10-29T10:36:30.846Z,54.00
2017-10-29T10:37:35.672Z,54.10
2017-10-29T10:38:40.385Z,54.10
2017-10-29T10:39:45.112Z,54.70
2017-10-29T10:40:49.892Z,54.10
2017-10-29T10:41:54.590Z,54.10
2017-10-29T10:42:59.309Z,54.10
2017-10-29T10:44:03.951Z,54.10
2017-10-29T10:45:08.792Z,54.10
2017-10-29T10:46:13.386Z,54.10
2017-10-29T10:47:18.390Z,54.10
2017-10-29T10:48:23.314Z,54.10
2017-10-29T10:49:28.215Z,54.10
2017-10-29T10:50:33.017Z,54.00
2017-10-29T10:51:37.686Z,54.10
2017-10-29T10:52:42.608Z,54.00
2017-10-29T10:53:47.404Z,54.00
2017-10-29T10:54:52.032Z,54.10
2017-10-29T10:55:56.772Z,54.10
2017-10-29T10:57:01.355Z,54.10
2017-10-29T10:58:06.010Z,54.20
2017-10-29T10:59:10.848Z,54.10
2017-10-29T11:00:15.549Z,54.10
2017-10-29T11:01:20.244Z,54.10
2017-10-29T11:02:24.990Z,54.10
2017-10-29T11:03:29.643Z,54.10
2017-10-29T11:04:34.469Z,54.10
2017-10-29T11:05:39.298Z,54.10
2017-10-29T11:06:43.843Z,54.10
2017-10-29T11:07:48.428Z,54.10
2017-10-29T11:08:53.035Z,54.10
2017-10-29T11:09:57.724Z,54.10
2017-10-29T11:11:02.625Z,54.10
2017-10-29T11:12:07.332Z,54.20
2017-10-29T11:13:12.065Z,54.10
2017-10-29T11:14:16.935Z,54.10
2017-10-29T11:15:21.629Z,54.10
2017-10-29T11:16:26.417Z,54.10
2017-10-29T11:17:31.272Z,54.10
2017-10-29T11:18:36.120Z,54.20
2017-10-29T11:19:40.960Z,54.20
2017-10-29T11:20:45.599Z,54.20
2017-10-29T11:21:50.313Z,54.80
2017-10-29T11:22:55.116Z,54.20
2017-10-29T11:23:59.940Z,54.10
2017-10-29T11:25:04.730Z,54.20
2017-10-29T11:26:09.320Z,54.10
2017-10-29T11:27:14.025Z,54.20
2017-10-29T11:28:18.820Z,54.20
2017-10-29T11:29:23.609Z,54.10
2017-10-29T11:30:28.303Z,54.20
2017-10-29T11:31:33.055Z,54.20
2017-10-29T11:32:37.794Z,54.10
2017-10-29T11:33:42.548Z,54.10
2017-10-29T11:34:47.267Z,54.10
2017-10-29T11:35:51.991Z,54.10
2017-10-29T11:36:56.877Z,54.10
2017-10-29T11:38:01.490Z,54.10
2017-10-29T11:39:06.340Z,54.10
2017-10-29T11:40:10.907Z,54.10
2017-10-29T11:41:15.690Z,54.10
2017-10-29T11:42:20.625Z,54.10
2017-10-29T11:43:25.352Z,54.10
2017-10-29T11:44:30.360Z,54.10
2017-10-29T11:45:35.058Z,54.10
2017-10-29T11:46:39.724Z,54.10
2017-10-29T11:47:44.462Z,54.10
2017-10-29T11:48:49.320Z,54.10
2017-10-29T11:49:54.108Z,54.10
2017-10-29T11:50:58.685Z,54.10
2017-10-29T11:52:03.539Z,54.10
2017-10-29T11:53:08.198Z,54.10
2017-10-29T11:54:12.894Z,54.10
2017-10-29T11:55:17.793Z,54.10
2017-10-29T11:56:22.497Z,54.10
2017-10-29T11:57:27.237Z,54.10
2017-10-29T11:58:32.134Z,54.10
2017-10-29T11:59:36.837Z,54.10
2017-10-29T12:00:41.443Z,54.10
2017-10-29T12:01:46.329Z,54.10
2017-10-29T12:02:51.106Z,54.10
2017-10-29T12:03:55.846Z,54.10
2017-10-29T12:05:00.718Z,54.10
2017-10-29T12:06:05.580Z,54.10
2017-10-29T12:07:10.510Z,54.10
2017-10-29T12:08:15.363Z,54.10
2017-10-29T12:09:20.199Z,54.10
2017-10-29T12:10:24.950Z,54.10
2017-10-29T12:11:29.827Z,54.10
2017-10-29T12:12:34.926Z,54.10
2017-10-29T12:13:39.494Z,54.10
2017-10-29T12:14:44.367Z,54.10
2017-10-29T12:15:49.254Z,54.10
2017-10-29T12:16:53.974Z,54.10
2017-10-29T12:17:58.768Z,54.10
2017-10-29T12:19:03.473Z,54.10
2017-10-29T12:20:08.030Z,54.10
2017-10-29T12:21:12.650Z,54.10
2017-10-29T12:22:17.399Z,54.10
2017-10-29T12:23:22.056Z,54.10
2017-10-29T12:24:26.765Z,54.10
2017-10-29T12:25:31.506Z,54.10
2017-10-29T12:26:36.437Z,54.10
2017-10-29T12:27:41.053Z,54.10
2017-10-29T12:28:45.736Z,54.10
2017-10-29T12:29:50.377Z,54.10
2017-10-29T12:30:55.354Z,54.10
2017-10-29T12:32:00.157Z,54.10
2017-10-29T12:33:04.903Z,54.10
2017-10-29T12:34:09.525Z,54.20
2017-10-29T12:35:14.432Z,54.20
2017-10-29T12:36:19.207Z,54.20
2017-10-29T12:37:24.421Z,54.10
2017-10-29T12:38:29.239Z,54.20
2017-10-29T12:39:33.819Z,54.10
2017-10-29T12:40:38.448Z,54.10
2017-10-29T12:41:42.982Z,54.10
2017-10-29T12:42:47.717Z,54.10
2017-10-29T12:43:52.467Z,54.10
2017-10-29T12:44:57.159Z,54.10
2017-10-29T12:46:02.118Z,54.10
2017-10-29T12:47:06.939Z,54.10
2017-10-29T12:48:11.661Z,54.80
2017-10-29T12:49:16.204Z,54.10
2017-10-29T12:50:21.618Z,54.10
2017-10-29T12:51:26.648Z,54.10
2017-10-29T12:52:31.485Z,54.10
2017-10-29T12:53:36.126Z,54.10
2017-10-29T12:54:41.006Z,54.10
2017-10-29T12:55:45.917Z,54.10
2017-10-29T12:56:50.779Z,54.10
2017-10-29T12:57:55.422Z,54.10
2017-10-29T12:59:00.097Z,54.10
2017-10-29T13:00:04.820Z,54.10
2017-10-29T13:01:09.711Z,54.10
2017-10-29T13:02:14.576Z,54.10
2017-10-29T13:03:19.189Z,54.10
2017-10-29T13:04:23.976Z,54.10
2017-10-29T13:05:28.976Z,54.10
2017-10-29T13:06:33.766Z,54.10
2017-10-29T13:07:38.443Z,54.10
2017-10-29T13:08:43.178Z,54.10
2017-10-29T13:09:48.022Z,54.10
2017-10-29T13:10:52.920Z,54.80
2017-10-29T13:11:57.744Z,54.10
2017-10-29T13:13:02.379Z,54.10
2017-10-29T13:14:07.165Z,54.10
2017-10-29T13:15:12.053Z,54.10
2017-10-29T13:16:17.030Z,54.10
2017-10-29T13:17:21.714Z,54.10
2017-10-29T13:18:26.246Z,54.10
2017-10-29T13:19:30.991Z,54.40
2017-10-29T13:20:35.829Z,54.10
2017-10-29T13:21:40.656Z,54.10
2017-10-29T13:22:45.498Z,54.10
2017-10-29T13:23:50.165Z,54.10
2017-10-29T13:24:54.963Z,54.10
2017-10-29T13:25:59.782Z,54.10
2017-10-29T13:27:04.706Z,54.10
2017-10-29T13:28:09.496Z,54.10
2017-10-29T13:29:14.141Z,54.10
2017-10-29T13:30:18.880Z,54.20
2017-10-29T13:31:23.510Z,54.80
2017-10-29T13:32:28.202Z,54.10
2017-10-29T13:33:32.976Z,54.10
2017-10-29T13:34:37.644Z,54.20
2017-10-29T13:35:42.459Z,54.10
2017-10-29T13:36:47.193Z,54.20
2017-10-29T13:37:51.921Z,54.20
2017-10-29T13:38:56.671Z,54.20
2017-10-29T13:40:01.207Z,54.20
2017-10-29T13:41:05.940Z,54.30
2017-10-29T13:42:10.799Z,54.20
2017-10-29T13:43:15.627Z,54.20
2017-10-29T13:44:20.389Z,54.30
2017-10-29T13:45:25.210Z,54.30
2017-10-29T13:46:30.075Z,54.30
2017-10-29T13:47:34.644Z,54.20
2017-10-29T13:48:39.346Z,54.20
2017-10-29T13:49:44.259Z,54.30
2017-10-29T13:50:49.012Z,54.20
2017-10-29T13:51:53.893Z,54.20
2017-10-29T13:52:58.734Z,54.20
2017-10-29T13:54:03.585Z,54.30